createdAt,value
2023-04-18T00:01:40.102Z,102104.25
2023-04-18T00:04:08.758Z,102111.59
2023-04-18T00:06:36.223Z,102112.53
2023-04-18T00:09:04.025Z,102110.56
2023-04-18T00:11:31.262Z,102115.91
2023-04-18T00:13:59.421Z,102120.31
2023-04-18T00:16:28.221Z,102122.97
2023-04-18T00:18:57.114Z,102117.97
2023-04-18T00:21:25.563Z,102115.22
2023-04-18T00:23:53.293Z,102123.25
2023-04-18T00:26:20.583Z,102119.44
2023-04-18T00:28:47.778Z,102123.31
2023-04-18T00:31:15.057Z,102116.34
2023-04-18T00:33:42.346Z,102127.81
2023-04-18T00:36:10.075Z,102123.41
2023-04-18T00:38:37.243Z,102124.13
2023-04-18T00:41:04.468Z,102124.28
2023-04-18T00:43:34.958Z,102129.63
2023-04-18T00:46:02.249Z,102127.06
2023-04-18T00:48:30.672Z,102125.31
2023-04-18T00:50:58.272Z,102127.06
2023-04-18T00:53:25.567Z,102124.38
2023-04-18T00:55:53.429Z,102127.06
2023-04-18T00:58:21.025Z,102120.06
2023-04-18T01:00:48.653Z,102115.56
2023-04-18T01:03:18.249Z,102120.84
2023-04-18T01:05:46.547Z,102122.28
2023-04-18T01:08:13.982Z,102122.56
2023-04-18T01:10:41.429Z,102121.59
2023-04-18T01:13:16.716Z,102123.41
2023-04-18T01:15:45.752Z,102118.34
2023-04-18T01:18:13.289Z,102118.25
2023-04-18T01:20:42.902Z,102122.63
2023-04-18T01:23:12.840Z,102123.25
2023-04-18T01:25:40.030Z,102124.38
2023-04-18T01:28:07.905Z,102122.41
2023-04-18T01:30:35.368Z,102128.25
2023-04-18T01:33:03.649Z,102126.38
2023-04-18T01:35:31.363Z,102126.25
2023-04-18T01:37:59.421Z,102123.53
2023-04-18T01:40:27.107Z,102125.06
2023-04-18T01:42:54.380Z,102126.00
2023-04-18T01:45:22.345Z,102122.56
2023-04-18T01:47:49.816Z,102121.00
2023-04-18T01:50:17.122Z,102123.41
2023-04-18T01:52:44.745Z,102127.38
2023-04-18T01:55:11.934Z,102127.38
2023-04-18T01:57:39.123Z,102121.19
2023-04-18T02:00:07.833Z,102125.75
2023-04-18T02:02:35.258Z,102121.34
2023-04-18T02:05:02.634Z,102131.88
2023-04-18T02:07:29.824Z,102122.38
2023-04-18T02:09:57.017Z,102115.13
2023-04-18T02:12:24.295Z,102120.38
2023-04-18T02:14:53.109Z,102116.06
2023-04-18T02:17:21.496Z,102115.13
2023-04-18T02:19:49.169Z,102115.19
2023-04-18T02:22:16.339Z,102122.22
2023-04-18T02:24:43.650Z,102117.88
2023-04-18T02:27:11.222Z,102115.31
2023-04-18T02:29:38.450Z,102119.59
2023-04-18T02:32:05.821Z,102125.13
2023-04-18T02:34:33.752Z,102117.03
2023-04-18T02:37:01.080Z,102119.75
2023-04-18T02:39:28.404Z,102121.50
2023-04-18T02:41:55.576Z,102116.41
2023-04-18T02:44:22.778Z,102116.31
2023-04-18T02:46:50.300Z,102119.69
2023-04-18T02:49:17.615Z,102119.94
2023-04-18T02:51:44.792Z,102121.69
2023-04-18T02:54:12.315Z,102130.47
2023-04-18T02:56:40.184Z,102126.88
2023-04-18T02:59:07.903Z,102128.59
2023-04-18T03:01:35.274Z,102127.03
2023-04-18T03:04:02.572Z,102125.84
2023-04-18T03:06:29.770Z,102130.56
2023-04-18T03:08:57.073Z,102133.94
2023-04-18T03:11:24.269Z,102125.84
2023-04-18T03:13:51.510Z,102130.28
2023-04-18T03:16:18.761Z,102137.41
2023-04-18T03:18:46.049Z,102134.03
2023-04-18T03:21:13.786Z,102137.41
2023-04-18T03:23:41.211Z,102137.41
2023-04-18T03:26:08.990Z,102133.66
2023-04-18T03:28:36.228Z,102135.50
2023-04-18T03:31:03.614Z,102135.75
2023-04-18T03:33:30.808Z,102132.97
2023-04-18T03:35:57.981Z,102137.41
2023-04-18T03:38:25.171Z,102136.53
2023-04-18T03:40:52.457Z,102135.97
2023-04-18T03:43:21.015Z,102134.78
2023-04-18T03:45:48.507Z,102138.50
2023-04-18T03:48:15.722Z,102139.38
2023-04-18T03:50:43.006Z,102138.31
2023-04-18T03:53:10.347Z,102138.31
2023-04-18T03:55:37.536Z,102132.06
2023-04-18T03:58:04.700Z,102139.44
2023-04-18T04:00:31.890Z,102141.16
2023-04-18T04:02:59.662Z,102137.72
2023-04-18T04:05:27.090Z,102144.16
2023-04-18T04:07:54.277Z,102147.56
2023-04-18T04:10:21.492Z,102136.78
2023-04-18T04:12:48.642Z,102147.56
2023-04-18T04:15:15.891Z,102153.63
2023-04-18T04:17:43.538Z,102155.34
2023-04-18T04:20:11.324Z,102147.31
2023-04-18T04:22:38.817Z,102147.31
2023-04-18T04:25:07.580Z,102161.81
2023-04-18T04:27:36.751Z,102156.09
2023-04-18T04:30:05.117Z,102157.38
2023-04-18T04:32:33.008Z,102166.38
2023-04-18T04:35:00.641Z,102163.78
2023-04-18T04:37:28.353Z,102167.56
2023-04-18T04:39:56.921Z,102170.00
2023-04-18T04:42:25.160Z,102178.94
2023-04-18T04:44:53.667Z,102174.34
2023-04-18T04:47:21.076Z,102171.72
2023-04-18T04:49:48.321Z,102170.16
2023-04-18T04:52:15.568Z,102171.81
2023-04-18T04:54:44.879Z,102173.38
2023-04-18T04:57:12.156Z,102174.22
2023-04-18T04:59:39.530Z,102170.75
2023-04-18T05:02:06.840Z,102177.44
2023-04-18T05:04:34.210Z,102181.78
2023-04-18T05:07:01.471Z,102188.84
2023-04-18T05:09:28.647Z,102184.44
2023-04-18T05:11:55.837Z,102181.59
2023-04-18T05:14:26.330Z,102176.09
2023-04-18T05:16:53.623Z,102182.41
2023-04-18T05:19:20.875Z,102184.72
2023-04-18T05:21:48.154Z,102182.47
2023-04-18T05:24:15.725Z,102189.00
2023-04-18T05:26:43.540Z,102192.31
2023-04-18T05:29:10.761Z,102182.56
2023-04-18T05:31:37.906Z,102186.25
2023-04-18T05:34:05.360Z,102183.66
2023-04-18T05:36:32.747Z,102185.31
2023-04-18T05:38:59.933Z,102180.16
2023-04-18T05:41:27.199Z,102184.22
2023-04-18T05:44:04.762Z,102185.34
2023-04-18T05:46:33.015Z,102181.72
2023-04-18T05:49:00.660Z,102199.59
2023-04-18T05:51:28.602Z,102201.25
2023-04-18T05:53:55.905Z,102201.41
2023-04-18T05:56:23.086Z,102202.91
2023-04-18T05:58:51.325Z,102202.97
2023-04-18T06:01:18.708Z,102202.91
2023-04-18T06:03:46.139Z,102208.41
2023-04-18T06:06:13.821Z,102196.53
2023-04-18T06:08:41.066Z,102194.88
2023-04-18T06:11:09.037Z,102198.69
2023-04-18T06:13:37.344Z,102203.34
2023-04-18T06:16:05.042Z,102206.81
2023-04-18T06:18:32.328Z,102207.56
2023-04-18T06:21:01.402Z,102204.56
2023-04-18T06:23:28.556Z,102208.97
2023-04-18T06:25:58.208Z,102211.47
2023-04-18T06:28:26.184Z,102209.75
2023-04-18T06:30:53.380Z,102216.66
2023-04-18T06:33:21.204Z,102207.56
2023-04-18T06:35:48.387Z,102220.50
2023-04-18T06:38:15.586Z,102217.56
2023-04-18T06:40:42.853Z,102215.94
2023-04-18T06:43:10.127Z,102224.84
2023-04-18T06:45:37.383Z,102215.41
2023-04-18T06:48:06.758Z,102220.69
2023-04-18T06:50:34.334Z,102212.34
2023-04-18T06:53:02.206Z,102219.06
2023-04-18T06:55:29.412Z,102215.22
2023-04-18T06:57:56.638Z,102222.72
2023-04-18T07:00:23.837Z,102228.81
2023-04-18T07:02:51.107Z,102224.38
2023-04-18T07:05:18.523Z,102222.44
2023-04-18T07:07:45.742Z,102217.09
2023-04-18T07:10:13.393Z,102222.31
2023-04-18T07:12:40.700Z,102219.41
2023-04-18T07:15:08.370Z,102212.59
2023-04-18T07:17:35.744Z,102220.19
2023-04-18T07:20:03.195Z,102225.84
2023-04-18T07:22:31.017Z,102231.19
2023-04-18T07:24:58.372Z,102226.81
2023-04-18T07:27:26.737Z,102232.16
2023-04-18T07:29:53.909Z,102228.53
2023-04-18T07:32:21.398Z,102229.16
2023-04-18T07:34:48.568Z,102231.66
2023-04-18T07:37:17.514Z,102230.63
2023-04-18T07:39:44.686Z,102240.81
2023-04-18T07:42:12.427Z,102235.47
2023-04-18T07:44:39.939Z,102233.63
2023-04-18T07:47:11.176Z,102236.31
2023-04-18T07:49:38.793Z,102230.09
2023-04-18T07:52:05.973Z,102230.00
2023-04-18T07:54:33.250Z,102233.31
2023-04-18T07:57:00.973Z,102229.25
2023-04-18T07:59:29.003Z,102227.66
2023-04-18T08:01:56.454Z,102225.69
2023-04-18T08:04:23.945Z,102224.94
2023-04-18T08:06:51.418Z,102236.56
2023-04-18T08:09:20.471Z,102222.47
2023-04-18T08:11:47.655Z,102232.66
2023-04-18T08:14:14.850Z,102233.69
2023-04-18T08:16:42.222Z,102236.03
2023-04-18T08:19:09.417Z,102243.19
2023-04-18T08:21:36.706Z,102244.03
2023-04-18T08:24:03.935Z,102238.31
2023-04-18T08:26:31.130Z,102231.50
2023-04-18T08:28:58.345Z,102237.91
2023-04-18T08:31:25.845Z,102245.31
2023-04-18T08:33:53.011Z,102246.59
2023-04-18T08:36:21.266Z,102236.06
2023-04-18T08:38:48.449Z,102240.72
2023-04-18T08:41:17.513Z,102232.94
2023-04-18T08:43:47.583Z,102236.31
2023-04-18T08:46:15.032Z,102239.75
2023-04-18T08:48:42.402Z,102237.34
2023-04-18T08:51:09.597Z,102235.00
2023-04-18T08:53:37.071Z,102234.50
2023-04-18T08:56:05.420Z,102233.84
2023-04-18T08:58:33.895Z,102231.00
2023-04-18T09:01:01.440Z,102232.72
2023-04-18T09:03:42.297Z,102229.84
2023-04-18T09:06:16.285Z,102231.31
2023-04-18T09:08:44.448Z,102226.41
2023-04-18T09:11:29.267Z,102234.16
2023-04-18T09:13:58.651Z,102238.00
2023-04-18T09:16:31.413Z,102229.84
2023-04-18T09:19:11.165Z,102234.53
2023-04-18T09:21:38.960Z,102234.63
2023-04-18T09:24:28.391Z,102235.41
2023-04-18T09:26:57.106Z,102237.22
2023-04-18T09:29:49.230Z,102232.09
2023-04-18T09:32:29.241Z,102229.63
2023-04-18T09:35:04.099Z,102235.53
2023-04-18T09:37:31.729Z,102231.25
2023-04-18T09:39:59.014Z,102239.41
2023-04-18T09:42:28.696Z,102241.19
2023-04-18T09:45:00.262Z,102239.78
2023-04-18T09:47:28.302Z,102244.00
2023-04-18T09:49:55.904Z,102241.38
2023-04-18T09:52:25.928Z,102238.63
2023-04-18T09:54:59.837Z,102235.16
2023-04-18T09:57:28.961Z,102228.75
2023-04-18T10:00:08.717Z,102230.78
2023-04-18T10:02:58.060Z,102230.88
2023-04-18T10:05:27.534Z,102231.75
2023-04-18T10:07:55.522Z,102223.03
2023-04-18T10:10:23.993Z,102227.34
2023-04-18T10:12:55.141Z,102228.78
2023-04-18T10:15:24.440Z,102221.69
2023-04-18T10:18:03.629Z,102225.34
2023-04-18T10:20:35.137Z,102223.72
2023-04-18T10:23:31.947Z,102231.13
2023-04-18T10:25:59.692Z,102233.91
2023-04-18T10:28:28.318Z,102224.75
2023-04-18T10:31:05.709Z,102219.09
2023-04-18T10:33:42.363Z,102215.81
2023-04-18T10:36:09.909Z,102216.66
2023-04-18T10:38:44.907Z,102214.41
2023-04-18T10:41:31.795Z,102217.75
2023-04-18T10:44:08.675Z,102221.06
2023-04-18T10:46:40.644Z,102216.09
2023-04-18T10:49:13.999Z,102218.69
2023-04-18T10:51:41.448Z,102213.19
2023-04-18T10:54:10.945Z,102213.09
2023-04-18T10:56:39.336Z,102218.16
2023-04-18T10:59:07.263Z,102217.19
2023-04-18T11:01:37.713Z,102218.44
2023-04-18T11:04:13.103Z,102209.56
2023-04-18T11:06:58.342Z,102211.78
2023-04-18T11:09:25.955Z,102208.91
2023-04-18T11:12:09.054Z,102204.41
2023-04-18T11:14:48.049Z,102213.88
2023-04-18T11:17:15.879Z,102211.13
2023-04-18T11:19:43.466Z,102208.44
2023-04-18T11:22:11.230Z,102206.03
2023-04-18T11:24:38.761Z,102210.09
2023-04-18T11:27:08.250Z,102209.13
2023-04-18T11:29:35.690Z,102201.78
2023-04-18T11:32:05.857Z,102200.56
2023-04-18T11:34:33.119Z,102197.50
2023-04-18T11:37:00.726Z,102199.06
2023-04-18T11:39:28.030Z,102198.47
2023-04-18T11:41:57.150Z,102205.84
2023-04-18T11:44:26.154Z,102198.91
2023-04-18T11:46:56.618Z,102188.72
2023-04-18T11:49:26.789Z,102191.72
2023-04-18T11:51:54.194Z,102193.09
2023-04-18T11:54:41.158Z,102194.59
2023-04-18T11:57:27.357Z,102194.22
2023-04-18T11:59:56.760Z,102200.94
2023-04-18T12:02:28.312Z,102199.69
2023-04-18T12:04:58.304Z,102195.94
2023-04-18T12:07:32.857Z,102188.34
2023-04-18T12:10:00.022Z,102193.50
2023-04-18T12:12:27.582Z,102183.91
2023-04-18T12:15:08.553Z,102184.38
2023-04-18T12:17:38.303Z,102188.09
2023-04-18T12:20:07.461Z,102186.19
2023-04-18T12:22:38.575Z,102184.22
2023-04-18T12:25:20.056Z,102186.00
2023-04-18T12:27:48.482Z,102189.19
2023-04-18T12:30:15.938Z,102191.00
2023-04-18T12:32:44.857Z,102197.19
2023-04-18T12:35:12.115Z,102183.66
2023-04-18T12:37:39.271Z,102189.19
2023-04-18T12:40:13.512Z,102188.44
2023-04-18T12:42:42.180Z,102190.84
2023-04-18T12:45:11.063Z,102183.94
2023-04-18T12:47:42.252Z,102185.59
2023-04-18T12:50:11.656Z,102184.56
2023-04-18T12:52:40.649Z,102188.63
2023-04-18T12:55:08.866Z,102188.22
2023-04-18T12:57:36.484Z,102179.97
2023-04-18T13:00:10.922Z,102187.06
2023-04-18T13:02:42.955Z,102194.66
2023-04-18T13:05:14.888Z,102183.44
2023-04-18T13:07:42.694Z,102190.78
2023-04-18T13:10:20.631Z,102184.56
2023-04-18T13:12:48.828Z,102183.03
2023-04-18T13:15:16.786Z,102179.31
2023-04-18T13:17:44.449Z,102180.47
2023-04-18T13:20:12.540Z,102176.13
2023-04-18T13:22:41.062Z,102183.88
2023-04-18T13:25:10.412Z,102177.97
2023-04-18T13:27:41.309Z,102175.16
2023-04-18T13:30:10.356Z,102177.38
2023-04-18T13:32:39.075Z,102175.75
2023-04-18T13:35:09.102Z,102168.97
2023-04-18T13:37:36.679Z,102172.28
2023-04-18T13:40:05.542Z,102171.97
2023-04-18T13:42:33.466Z,102164.09
2023-04-18T13:45:00.676Z,102170.16
2023-04-18T13:47:27.959Z,102177.16
2023-04-18T13:49:55.141Z,102170.41
2023-04-18T13:52:22.346Z,102168.69
2023-04-18T13:54:49.512Z,102163.16
2023-04-18T13:57:16.692Z,102159.50
2023-04-18T13:59:43.869Z,102164.09
2023-04-18T14:02:11.508Z,102168.16
2023-04-18T14:04:39.162Z,102171.22
2023-04-18T14:07:08.076Z,102167.72
2023-04-18T14:09:35.560Z,102163.38
2023-04-18T14:12:02.916Z,102157.06
2023-04-18T14:14:30.743Z,102155.81
2023-04-18T14:16:58.238Z,102148.44
2023-04-18T14:19:26.439Z,102151.25
2023-04-18T14:21:53.735Z,102154.84
2023-04-18T14:24:21.276Z,102152.00
2023-04-18T14:26:48.777Z,102151.06
2023-04-18T14:29:16.472Z,102148.94
2023-04-18T14:31:44.283Z,102150.66
2023-04-18T14:34:11.497Z,102146.25
2023-04-18T14:36:38.753Z,102147.78
2023-04-18T14:39:06.234Z,102138.69
2023-04-18T14:41:33.494Z,102141.28
2023-04-18T14:44:00.908Z,102139.47
2023-04-18T14:46:29.183Z,102144.91
2023-04-18T14:48:57.944Z,102137.63
2023-04-18T14:51:26.137Z,102137.63
2023-04-18T14:53:53.485Z,102132.06
2023-04-18T14:56:21.560Z,102133.59
2023-04-18T14:58:48.802Z,102127.50
2023-04-18T15:01:17.552Z,102123.19
2023-04-18T15:03:45.181Z,102123.41
2023-04-18T15:06:12.597Z,102123.47
2023-04-18T15:08:39.808Z,102128.69
2023-04-18T15:11:08.146Z,102112.03
2023-04-18T15:13:35.527Z,102115.66
2023-04-18T15:16:02.772Z,102115.94
2023-04-18T15:18:30.295Z,102119.28
2023-04-18T15:21:01.124Z,102117.97
2023-04-18T15:23:28.481Z,102115.47
2023-04-18T15:25:55.956Z,102116.09
2023-04-18T15:28:23.423Z,102113.34
2023-04-18T15:30:50.853Z,102113.41
2023-04-18T15:33:20.313Z,102124.63
2023-04-18T15:35:50.620Z,102116.88
2023-04-18T15:38:17.807Z,102119.56
2023-04-18T15:40:46.376Z,102116.88
2023-04-18T15:43:13.825Z,102122.56
2023-04-18T15:45:45.431Z,102123.69
2023-04-18T15:48:13.202Z,102125.06
2023-04-18T15:50:42.333Z,102116.53
2023-04-18T15:53:09.532Z,102116.56
2023-04-18T15:55:36.937Z,102119.97
2023-04-18T15:58:04.392Z,102124.69
2023-04-18T16:00:31.775Z,102122.78
2023-04-18T16:02:59.041Z,102118.88
2023-04-18T16:05:26.399Z,102117.53
2023-04-18T16:07:56.024Z,102110.44
2023-04-18T16:10:23.656Z,102114.91
2023-04-18T16:12:50.918Z,102121.63
2023-04-18T16:15:18.104Z,102121.28
2023-04-18T16:17:45.562Z,102123.34
2023-04-18T16:20:12.884Z,102115.00
2023-04-18T16:22:40.041Z,102113.97
2023-04-18T16:25:08.093Z,102119.53
2023-04-18T16:27:35.325Z,102122.66
2023-04-18T16:30:03.741Z,102128.19
2023-04-18T16:32:30.960Z,102123.31
2023-04-18T16:35:02.799Z,102114.09
2023-04-18T16:37:30.185Z,102124.47
2023-04-18T16:39:57.363Z,102117.75
2023-04-18T16:42:24.534Z,102117.56
2023-04-18T16:44:53.099Z,102114.63
2023-04-18T16:47:20.357Z,102112.53
2023-04-18T16:49:47.730Z,102106.44
2023-04-18T16:52:16.560Z,102114.88
2023-04-18T16:54:44.390Z,102114.53
2023-04-18T16:57:12.127Z,102115.31
2023-04-18T16:59:39.423Z,102124.22
2023-04-18T17:02:06.827Z,102125.06
2023-04-18T17:04:34.134Z,102119.69
2023-04-18T17:07:01.419Z,102124.09
2023-04-18T17:09:28.608Z,102125.84
2023-04-18T17:11:55.762Z,102131.97
2023-04-18T17:14:22.923Z,102118.56
2023-04-18T17:16:52.846Z,102123.91
2023-04-18T17:19:21.289Z,102126.59
2023-04-18T17:21:49.423Z,102139.94
2023-04-18T17:24:18.702Z,102133.78
2023-04-18T17:26:48.518Z,102130.25
2023-04-18T17:29:16.669Z,102137.31
2023-04-18T17:31:44.325Z,102131.97
2023-04-18T17:34:11.548Z,102133.91
2023-04-18T17:36:38.821Z,102136.47
2023-04-18T17:39:06.592Z,102134.75
2023-04-18T17:41:38.537Z,102133.00
2023-04-18T17:44:07.693Z,102138.28
2023-04-18T17:46:34.985Z,102139.03
2023-04-18T17:49:02.542Z,102140.78
2023-04-18T17:51:29.795Z,102141.72
2023-04-18T17:53:57.259Z,102145.28
2023-04-18T17:56:24.580Z,102146.16
2023-04-18T17:58:51.785Z,102143.47
2023-04-18T18:01:21.045Z,102161.47
2023-04-18T18:03:51.001Z,102156.94
2023-04-18T18:06:18.320Z,102150.72
2023-04-18T18:08:45.506Z,102153.41
2023-04-18T18:11:12.717Z,102152.44
2023-04-18T18:13:40.003Z,102152.56
2023-04-18T18:16:07.815Z,102157.06
2023-04-18T18:18:35.223Z,102163.19
2023-04-18T18:21:02.403Z,102166.81
2023-04-18T18:23:29.905Z,102165.19
2023-04-18T18:25:57.095Z,102178.50
2023-04-18T18:28:24.322Z,102183.00
2023-04-18T18:30:51.551Z,102181.19
2023-04-18T18:33:18.919Z,102182.06
2023-04-18T18:35:46.099Z,102181.19
2023-04-18T18:38:13.904Z,102190.19
2023-04-18T18:40:41.219Z,102184.84
2023-04-18T18:43:08.392Z,102184.91
2023-04-18T18:45:35.941Z,102193.91
2023-04-18T18:48:03.978Z,102192.28
2023-04-18T18:50:31.219Z,102189.59
2023-04-18T18:52:58.411Z,102193.91
2023-04-18T18:55:25.574Z,102196.50
2023-04-18T18:57:53.222Z,102195.56
2023-04-18T19:00:20.488Z,102195.13
2023-04-18T19:02:47.787Z,102198.66
2023-04-18T19:05:15.258Z,102186.13
2023-04-18T19:07:42.632Z,102204.13
2023-04-18T19:10:12.926Z,102204.91
2023-04-18T19:12:40.375Z,102204.81
2023-04-18T19:15:08.206Z,102215.38
2023-04-18T19:17:35.726Z,102212.34
2023-04-18T19:20:03.337Z,102211.38
2023-04-18T19:22:30.978Z,102208.88
2023-04-18T19:25:00.374Z,102209.47
2023-04-18T19:27:27.579Z,102203.22
2023-04-18T19:29:55.049Z,102205.16
2023-04-18T19:32:22.238Z,102203.81
2023-04-18T19:34:51.100Z,102204.00
2023-04-18T19:37:18.342Z,102203.81
2023-04-18T19:39:45.807Z,102205.47
2023-04-18T19:42:13.268Z,102213.41
2023-04-18T19:44:40.519Z,102217.22
2023-04-18T19:47:07.709Z,102203.72
2023-04-18T19:49:35.067Z,102209.00
2023-04-18T19:52:02.234Z,102212.66
2023-04-18T19:54:31.353Z,102213.75
2023-04-18T19:56:58.703Z,102210.16
2023-04-18T19:59:26.080Z,102213.53
2023-04-18T20:01:53.533Z,102216.63
2023-04-18T20:04:22.255Z,102211.97
2023-04-18T20:06:49.851Z,102214.72
2023-04-18T20:09:17.518Z,102219.22
2023-04-18T20:11:46.420Z,102220.94
2023-04-18T20:14:13.609Z,102219.22
2023-04-18T20:16:42.730Z,102217.41
2023-04-18T20:19:12.697Z,102221.91
2023-04-18T20:21:40.148Z,102217.41
2023-04-18T20:24:09.590Z,102231.78
2023-04-18T20:26:37.097Z,102226.41
2023-04-18T20:29:04.377Z,102222.09
2023-04-18T20:31:31.672Z,102223.91
2023-04-18T20:33:58.868Z,102219.41
2023-04-18T20:36:26.245Z,102215.00
2023-04-18T20:38:53.425Z,102215.88
2023-04-18T20:41:24.109Z,102212.41
2023-04-18T20:43:53.658Z,102216.91
2023-04-18T20:46:21.057Z,102205.41
2023-04-18T20:48:48.473Z,102211.41
2023-04-18T20:51:16.176Z,102216.94
2023-04-18T20:53:43.474Z,102217.63
2023-04-18T20:56:10.957Z,102217.53
2023-04-18T20:58:38.378Z,102218.28
2023-04-18T21:01:06.977Z,102213.72
2023-04-18T21:03:34.741Z,102210.19
2023-04-18T21:06:02.453Z,102217.19
2023-04-18T21:08:30.022Z,102222.63
2023-04-18T21:10:57.636Z,102216.59
2023-04-18T21:13:24.842Z,102214.88
2023-04-18T21:15:52.182Z,102217.38
2023-04-18T21:18:19.968Z,102213.78
2023-04-18T21:20:47.164Z,102224.91
2023-04-18T21:23:14.354Z,102219.56
2023-04-18T21:25:42.690Z,102218.50
2023-04-18T21:28:10.027Z,102214.38
2023-04-18T21:30:37.202Z,102219.91
2023-04-18T21:33:04.496Z,102210.06
2023-04-18T21:35:31.699Z,102214.63
2023-04-18T21:37:58.959Z,102205.81
2023-04-18T21:40:26.861Z,102219.97
2023-04-18T21:42:54.190Z,102221.19
2023-04-18T21:45:21.654Z,102217.47
2023-04-18T21:47:49.686Z,102224.75
2023-04-18T21:50:16.923Z,102223.00
2023-04-18T21:52:44.288Z,102228.53
2023-04-18T21:55:11.453Z,102223.34
2023-04-18T21:57:38.910Z,102209.19
2023-04-18T22:00:09.232Z,102216.25
2023-04-18T22:02:37.656Z,102211.00
2023-04-18T22:05:06.451Z,102202.97
2023-04-18T22:07:43.271Z,102209.09
2023-04-18T22:10:18.332Z,102210.91
2023-04-18T22:12:45.779Z,102202.97
2023-04-18T22:15:13.244Z,102208.34
2023-04-18T22:17:41.681Z,102203.84
2023-04-18T22:20:10.693Z,102205.72
2023-04-18T22:22:38.072Z,102208.34
2023-04-18T22:25:07.328Z,102200.28
2023-04-18T22:27:34.501Z,102197.63
2023-04-18T22:30:01.715Z,102196.81
2023-04-18T22:32:29.234Z,102196.72
2023-04-18T22:34:56.605Z,102194.94
2023-04-18T22:37:24.127Z,102192.25
2023-04-18T22:39:51.300Z,102188.78
2023-04-18T22:42:18.486Z,102193.34
2023-04-18T22:44:45.695Z,102184.41
2023-04-18T22:47:12.854Z,102184.72
2023-04-18T22:49:40.383Z,102186.09
2023-04-18T22:52:08.355Z,102188.84
2023-04-18T22:54:39.790Z,102179.97
2023-04-18T22:57:06.981Z,102184.63
2023-04-18T22:59:34.266Z,102173.91
2023-04-18T23:02:01.886Z,102174.88
2023-04-18T23:04:32.317Z,102179.22
2023-04-18T23:06:59.600Z,102172.44
2023-04-18T23:09:27.509Z,102170.56
2023-04-18T23:11:54.734Z,102170.66
2023-04-18T23:14:22.495Z,102166.91
2023-04-18T23:16:49.692Z,102170.56
2023-04-18T23:19:16.857Z,102173.38
2023-04-18T23:21:44.210Z,102173.38
2023-04-18T23:24:12.249Z,102173.47
2023-04-18T23:26:39.883Z,102169.75
2023-04-18T23:29:07.076Z,102170.78
2023-04-18T23:31:34.363Z,102160.25
2023-04-18T23:34:01.855Z,102163.00
2023-04-18T23:36:29.464Z,102163.69
2023-04-18T23:38:56.710Z,102166.28
2023-04-18T23:41:24.162Z,102158.44
2023-04-18T23:43:51.346Z,102157.47
2023-04-18T23:46:18.833Z,102153.16
2023-04-18T23:48:49.639Z,102154.97
2023-04-18T23:51:16.838Z,102153.84
2023-04-18T23:53:44.132Z,102152.13
2023-04-18T23:56:11.734Z,102146.94
2023-04-18T23:58:38.998Z,102148.56
